sensor_id;sensor_type;location;lat;lon;timestamp;P1;durP1;ratioP1;P2;durP2;ratioP2
846;SDS011;410;48.954;9.474;2022-07-29T00:00:40;9.87;;;8.97;;
846;SDS011;410;48.954;9.474;2022-07-29T00:02:47;10.00;;;8.27;;
846;SDS011;410;48.954;9.474;2022-07-29T00:04:50;9.43;;;8.43;;
846;SDS011;410;48.954;9.474;2022-07-29T00:06:53;9.80;;;8.87;;
846;SDS011;410;48.954;9.474;2022-07-29T00:08:56;11.00;;;9.90;;
846;SDS011;410;48.954;9.474;2022-07-29T00:10:59;10.27;;;9.27;;
846;SDS011;410;48.954;9.474;2022-07-29T00:13:02;9.87;;;8.87;;
846;SDS011;410;48.954;9.474;2022-07-29T00:15:06;9.53;;;8.67;;
846;SDS011;410;48.954;9.474;2022-07-29T00:17:10;9.40;;;8.60;;
846;SDS011;410;48.954;9.474;2022-07-29T00:19:20;9.67;;;8.67;;
846;SDS011;410;48.954;9.474;2022-07-29T00:21:23;9.87;;;8.87;;
846;SDS011;410;48.954;9.474;2022-07-29T00:23:27;10.43;;;9.53;;
846;SDS011;410;48.954;9.474;2022-07-29T00:25:32;10.23;;;8.77;;
846;SDS011;410;48.954;9.474;2022-07-29T00:27:35;9.60;;;8.63;;
846;SDS011;410;48.954;9.474;2022-07-29T00:29:39;9.70;;;8.70;;
846;SDS011;410;48.954;9.474;2022-07-29T00:31:42;9.37;;;8.47;;
846;SDS011;410;48.954;9.474;2022-07-29T00:33:46;9.70;;;8.73;;
846;SDS011;410;48.954;9.474;2022-07-29T00:35:51;9.70;;;8.80;;
846;SDS011;410;48.954;9.474;2022-07-29T00:37:53;9.40;;;8.47;;
846;SDS011;410;48.954;9.474;2022-07-29T00:39:57;9.63;;;8.70;;
846;SDS011;410;48.954;9.474;2022-07-29T00:42:01;11.00;;;9.20;;
846;SDS011;410;48.954;9.474;2022-07-29T00:44:05;10.37;;;9.37;;
846;SDS011;410;48.954;9.474;2022-07-29T00:46:08;9.70;;;8.80;;
846;SDS011;410;48.954;9.474;2022-07-29T00:48:11;10.03;;;9.00;;
846;SDS011;410;48.954;9.474;2022-07-29T00:50:14;10.60;;;8.87;;
846;SDS011;410;48.954;9.474;2022-07-29T00:52:19;9.70;;;8.90;;
846;SDS011;410;48.954;9.474;2022-07-29T00:54:23;10.00;;;9.10;;
846;SDS011;410;48.954;9.474;2022-07-29T00:56:26;9.47;;;8.67;;
846;SDS011;410;48.954;9.474;2022-07-29T00:58:30;9.73;;;8.80;;
846;SDS011;410;48.954;9.474;2022-07-29T01:00:34;9.93;;;9.03;;
846;SDS011;410;48.954;9.474;2022-07-29T01:02:38;9.50;;;8.60;;
846;SDS011;410;48.954;9.474;2022-07-29T01:04:41;11.27;;;9.83;;
846;SDS011;410;48.954;9.474;2022-07-29T01:06:44;10.20;;;9.00;;
846;SDS011;410;48.954;9.474;2022-07-29T01:08:49;10.10;;;9.10;;
846;SDS011;410;48.954;9.474;2022-07-29T01:10:52;10.00;;;9.00;;
846;SDS011;410;48.954;9.474;2022-07-29T01:12:57;12.20;;;9.63;;
846;SDS011;410;48.954;9.474;2022-07-29T01:15:00;10.97;;;9.77;;
846;SDS011;410;48.954;9.474;2022-07-29T01:17:06;9.00;;;8.20;;
846;SDS011;410;48.954;9.474;2022-07-29T01:19:19;9.27;;;8.47;;
846;SDS011;410;48.954;9.474;2022-07-29T01:21:46;11.90;;;10.10;;
846;SDS011;410;48.954;9.474;2022-07-29T01:24:02;9.47;;;8.57;;
846;SDS011;410;48.954;9.474;2022-07-29T01:26:23;9.83;;;8.87;;
846;SDS011;410;48.954;9.474;2022-07-29T01:28:47;10.10;;;9.17;;
846;SDS011;410;48.954;9.474;2022-07-29T01:30:55;9.70;;;8.70;;
846;SDS011;410;48.954;9.474;2022-07-29T01:32:59;10.37;;;9.33;;
846;SDS011;410;48.954;9.474;2022-07-29T01:35:06;10.50;;;9.40;;
846;SDS011;410;48.954;9.474;2022-07-29T01:37:15;10.40;;;9.40;;
846;SDS011;410;48.954;9.474;2022-07-29T01:39:23;10.37;;;9.20;;
846;SDS011;410;48.954;9.474;2022-07-29T01:41:29;9.47;;;8.57;;
846;SDS011;410;48.954;9.474;2022-07-29T01:43:36;9.23;;;8.43;;
846;SDS011;410;48.954;9.474;2022-07-29T01:45:50;10.87;;;9.30;;
846;SDS011;410;48.954;9.474;2022-07-29T01:48:00;9.90;;;9.00;;
846;SDS011;410;48.954;9.474;2022-07-29T01:50:06;10.47;;;9.47;;
846;SDS011;410;48.954;9.474;2022-07-29T01:52:13;10.03;;;9.03;;
846;SDS011;410;48.954;9.474;2022-07-29T01:54:21;10.97;;;9.50;;
846;SDS011;410;48.954;9.474;2022-07-29T01:56:28;11.63;;;9.77;;
846;SDS011;410;48.954;9.474;2022-07-29T01:58:34;10.67;;;9.67;;
846;SDS011;410;48.954;9.474;2022-07-29T02:00:39;10.30;;;9.07;;
846;SDS011;410;48.954;9.474;2022-07-29T02:02:46;10.43;;;9.43;;
846;SDS011;410;48.954;9.474;2022-07-29T02:04:49;9.97;;;9.10;;
846;SDS011;410;48.954;9.474;2022-07-29T02:06:54;10.77;;;9.67;;
846;SDS011;410;48.954;9.474;2022-07-29T02:09:00;10.77;;;9.10;;
846;SDS011;410;48.954;9.474;2022-07-29T02:11:04;10.20;;;9.30;;
846;SDS011;410;48.954;9.474;2022-07-29T02:13:08;9.23;;;8.43;;
846;SDS011;410;48.954;9.474;2022-07-29T02:15:12;10.50;;;9.50;;
846;SDS011;410;48.954;9.474;2022-07-29T02:17:18;10.10;;;9.17;;
846;SDS011;410;48.954;9.474;2022-07-29T02:19:25;10.50;;;8.93;;
846;SDS011;410;48.954;9.474;2022-07-29T02:21:30;11.27;;;10.10;;
846;SDS011;410;48.954;9.474;2022-07-29T02:23:33;10.77;;;9.33;;
846;SDS011;410;48.954;9.474;2022-07-29T02:25:53;11.23;;;10.13;;
846;SDS011;410;48.954;9.474;2022-07-29T02:27:57;10.13;;;9.30;;
846;SDS011;410;48.954;9.474;2022-07-29T02:30:02;10.30;;;9.30;;
846;SDS011;410;48.954;9.474;2022-07-29T02:32:06;10.90;;;9.80;;
846;SDS011;410;48.954;9.474;2022-07-29T02:34:11;14.20;;;10.00;;
846;SDS011;410;48.954;9.474;2022-07-29T02:36:21;11.53;;;10.43;;
846;SDS011;410;48.954;9.474;2022-07-29T02:38:25;11.50;;;9.77;;
846;SDS011;410;48.954;9.474;2022-07-29T02:40:47;11.37;;;10.33;;
846;SDS011;410;48.954;9.474;2022-07-29T02:42:51;11.53;;;10.43;;
846;SDS011;410;48.954;9.474;2022-07-29T02:44:54;11.17;;;10.20;;
846;SDS011;410;48.954;9.474;2022-07-29T02:46:58;11.57;;;10.00;;
846;SDS011;410;48.954;9.474;2022-07-29T02:49:15;10.33;;;9.33;;
846;SDS011;410;48.954;9.474;2022-07-29T02:51:23;10.90;;;9.80;;
846;SDS011;410;48.954;9.474;2022-07-29T02:53:45;14.37;;;11.00;;
846;SDS011;410;48.954;9.474;2022-07-29T02:55:56;10.20;;;9.17;;
846;SDS011;410;48.954;9.474;2022-07-29T02:58:02;11.07;;;10.03;;
846;SDS011;410;48.954;9.474;2022-07-29T03:00:08;10.50;;;9.60;;
846;SDS011;410;48.954;9.474;2022-07-29T03:02:13;11.20;;;10.10;;
846;SDS011;410;48.954;9.474;2022-07-29T03:04:16;11.97;;;10.97;;
846;SDS011;410;48.954;9.474;2022-07-29T03:06:24;10.90;;;9.90;;
846;SDS011;410;48.954;9.474;2022-07-29T03:08:39;12.30;;;11.20;;
846;SDS011;410;48.954;9.474;2022-07-29T03:10:44;11.07;;;10.07;;
846;SDS011;410;48.954;9.474;2022-07-29T03:12:48;10.83;;;9.83;;
846;SDS011;410;48.954;9.474;2022-07-29T03:14:52;11.07;;;10.07;;
846;SDS011;410;48.954;9.474;2022-07-29T03:16:55;11.87;;;10.77;;
846;SDS011;410;48.954;9.474;2022-07-29T03:18:59;10.43;;;9.43;;
846;SDS011;410;48.954;9.474;2022-07-29T03:21:03;12.10;;;10.80;;
846;SDS011;410;48.954;9.474;2022-07-29T03:23:08;16.03;;;10.67;;
846;SDS011;410;48.954;9.474;2022-07-29T03:25:12;11.60;;;10.60;;
846;SDS011;410;48.954;9.474;2022-07-29T03:27:15;11.53;;;10.40;;
846;SDS011;410;48.954;9.474;2022-07-29T03:29:18;11.33;;;10.00;;
846;SDS011;410;48.954;9.474;2022-07-29T03:31:22;12.73;;;9.90;;
846;SDS011;410;48.954;9.474;2022-07-29T03:33:25;10.87;;;9.93;;
846;SDS011;410;48.954;9.474;2022-07-29T03:35:30;11.80;;;10.60;;
846;SDS011;410;48.954;9.474;2022-07-29T03:37:33;10.93;;;9.83;;
846;SDS011;410;48.954;9.474;2022-07-29T03:39:40;11.33;;;10.33;;
846;SDS011;410;48.954;9.474;2022-07-29T03:41:44;11.43;;;10.23;;
846;SDS011;410;48.954;9.474;2022-07-29T03:43:48;11.10;;;10.07;;
846;SDS011;410;48.954;9.474;2022-07-29T03:45:52;12.50;;;11.30;;
846;SDS011;410;48.954;9.474;2022-07-29T03:47:59;11.27;;;10.17;;
846;SDS011;410;48.954;9.474;2022-07-29T03:50:05;11.60;;;10.50;;
846;SDS011;410;48.954;9.474;2022-07-29T03:52:11;10.83;;;9.80;;
846;SDS011;410;48.954;9.474;2022-07-29T03:54:15;11.07;;;10.07;;
846;SDS011;410;48.954;9.474;2022-07-29T03:56:20;10.87;;;9.87;;
846;SDS011;410;48.954;9.474;2022-07-29T03:58:24;12.00;;;10.80;;
846;SDS011;410;48.954;9.474;2022-07-29T04:00:29;12.33;;;10.60;;
846;SDS011;410;48.954;9.474;2022-07-29T04:02:32;11.50;;;10.40;;
846;SDS011;410;48.954;9.474;2022-07-29T04:04:36;11.07;;;9.97;;
846;SDS011;410;48.954;9.474;2022-07-29T04:06:39;11.27;;;10.27;;
846;SDS011;410;48.954;9.474;2022-07-29T04:08:43;10.80;;;9.80;;
846;SDS011;410;48.954;9.474;2022-07-29T04:10:46;10.57;;;9.67;;
846;SDS011;410;48.954;9.474;2022-07-29T04:12:50;13.93;;;9.77;;
846;SDS011;410;48.954;9.474;2022-07-29T04:14:54;11.97;;;10.30;;
846;SDS011;410;48.954;9.474;2022-07-29T04:16:57;10.77;;;9.77;;
846;SDS011;410;48.954;9.474;2022-07-29T04:19:00;12.47;;;10.63;;
846;SDS011;410;48.954;9.474;2022-07-29T04:21:03;11.57;;;10.27;;
846;SDS011;410;48.954;9.474;2022-07-29T04:23:06;10.77;;;9.77;;
846;SDS011;410;48.954;9.474;2022-07-29T04:25:10;10.43;;;9.50;;
846;SDS011;410;48.954;9.474;2022-07-29T04:27:13;11.17;;;9.90;;
846;SDS011;410;48.954;9.474;2022-07-29T04:29:17;11.37;;;10.37;;
846;SDS011;410;48.954;9.474;2022-07-29T04:31:21;11.10;;;10.00;;
846;SDS011;410;48.954;9.474;2022-07-29T04:33:26;12.97;;;11.67;;
846;SDS011;410;48.954;9.474;2022-07-29T04:35:30;13.47;;;10.97;;
846;SDS011;410;48.954;9.474;2022-07-29T04:37:39;12.03;;;10.87;;
846;SDS011;410;48.954;9.474;2022-07-29T04:39:42;11.83;;;10.53;;
846;SDS011;410;48.954;9.474;2022-07-29T04:41:45;12.23;;;10.93;;
846;SDS011;410;48.954;9.474;2022-07-29T04:43:48;12.80;;;11.00;;
846;SDS011;410;48.954;9.474;2022-07-29T04:45:53;11.30;;;10.33;;
846;SDS011;410;48.954;9.474;2022-07-29T04:47:57;11.57;;;10.37;;
846;SDS011;410;48.954;9.474;2022-07-29T04:50:00;11.47;;;10.30;;
846;SDS011;410;48.954;9.474;2022-07-29T04:52:03;10.83;;;9.73;;
846;SDS011;410;48.954;9.474;2022-07-29T04:54:07;12.37;;;9.90;;
846;SDS011;410;48.954;9.474;2022-07-29T04:56:10;11.37;;;10.23;;
846;SDS011;410;48.954;9.474;2022-07-29T04:58:13;11.47;;;10.47;;
846;SDS011;410;48.954;9.474;2022-07-29T05:00:17;11.30;;;10.30;;
846;SDS011;410;48.954;9.474;2022-07-29T05:02:21;12.90;;;10.57;;
846;SDS011;410;48.954;9.474;2022-07-29T05:04:25;12.50;;;11.27;;
846;SDS011;410;48.954;9.474;2022-07-29T05:06:28;12.67;;;10.70;;
846;SDS011;410;48.954;9.474;2022-07-29T05:08:31;12.63;;;11.30;;
846;SDS011;410;48.954;9.474;2022-07-29T05:10:34;11.37;;;10.37;;
846;SDS011;410;48.954;9.474;2022-07-29T05:12:39;12.27;;;10.90;;
846;SDS011;410;48.954;9.474;2022-07-29T05:14:42;13.90;;;10.47;;
846;SDS011;410;48.954;9.474;2022-07-29T05:16:45;11.20;;;9.83;;
846;SDS011;410;48.954;9.474;2022-07-29T05:18:51;11.30;;;10.07;;
846;SDS011;410;48.954;9.474;2022-07-29T05:20:54;11.53;;;10.33;;
846;SDS011;410;48.954;9.474;2022-07-29T05:22:58;11.30;;;10.27;;
846;SDS011;410;48.954;9.474;2022-07-29T05:25:02;12.07;;;10.90;;
846;SDS011;410;48.954;9.474;2022-07-29T05:27:09;11.03;;;10.00;;
846;SDS011;410;48.954;9.474;2022-07-29T05:29:13;10.93;;;10.03;;
846;SDS011;410;48.954;9.474;2022-07-29T05:31:36;13.00;;;9.70;;
846;SDS011;410;48.954;9.474;2022-07-29T05:33:39;10.97;;;9.97;;
846;SDS011;410;48.954;9.474;2022-07-29T05:35:43;11.77;;;10.77;;
846;SDS011;410;48.954;9.474;2022-07-29T05:37:47;12.30;;;11.00;;
846;SDS011;410;48.954;9.474;2022-07-29T05:39:50;11.27;;;10.23;;
846;SDS011;410;48.954;9.474;2022-07-29T05:41:57;10.77;;;9.70;;
846;SDS011;410;48.954;9.474;2022-07-29T05:44:01;10.80;;;9.80;;
846;SDS011;410;48.954;9.474;2022-07-29T05:46:04;11.70;;;9.70;;
846;SDS011;410;48.954;9.474;2022-07-29T05:48:07;10.20;;;9.30;;
846;SDS011;410;48.954;9.474;2022-07-29T05:50:10;10.80;;;9.80;;
846;SDS011;410;48.954;9.474;2022-07-29T05:52:15;9.90;;;8.93;;
846;SDS011;410;48.954;9.474;2022-07-29T05:54:18;13.13;;;9.90;;
846;SDS011;410;48.954;9.474;2022-07-29T05:56:21;10.90;;;9.80;;
846;SDS011;410;48.954;9.474;2022-07-29T05:58:24;10.30;;;8.97;;
846;SDS011;410;48.954;9.474;2022-07-29T06:00:27;9.50;;;8.70;;
846;SDS011;410;48.954;9.474;2022-07-29T06:02:31;10.53;;;9.50;;
846;SDS011;410;48.954;9.474;2022-07-29T06:04:34;10.10;;;9.13;;
846;SDS011;410;48.954;9.474;2022-07-29T06:06:38;9.70;;;8.70;;
846;SDS011;410;48.954;9.474;2022-07-29T06:08:42;10.57;;;9.63;;
846;SDS011;410;48.954;9.474;2022-07-29T06:10:45;10.70;;;9.67;;
846;SDS011;410;48.954;9.474;2022-07-29T06:12:49;10.37;;;9.47;;
846;SDS011;410;48.954;9.474;2022-07-29T06:14:52;10.20;;;9.30;;
846;SDS011;410;48.954;9.474;2022-07-29T06:16:55;10.27;;;9.30;;
846;SDS011;410;48.954;9.474;2022-07-29T06:18:58;10.77;;;9.77;;
846;SDS011;410;48.954;9.474;2022-07-29T06:21:01;12.30;;;9.40;;
846;SDS011;410;48.954;9.474;2022-07-29T06:23:11;10.40;;;9.50;;
846;SDS011;410;48.954;9.474;2022-07-29T06:25:15;9.97;;;8.97;;
846;SDS011;410;48.954;9.474;2022-07-29T06:27:18;10.27;;;9.30;;
846;SDS011;410;48.954;9.474;2022-07-29T06:29:21;9.60;;;8.80;;
846;SDS011;410;48.954;9.474;2022-07-29T06:31:24;10.87;;;9.60;;
846;SDS011;410;48.954;9.474;2022-07-29T06:33:28;10.87;;;9.60;;
846;SDS011;410;48.954;9.474;2022-07-29T06:35:33;10.37;;;9.30;;
846;SDS011;410;48.954;9.474;2022-07-29T06:37:42;10.23;;;9.20;;
846;SDS011;410;48.954;9.474;2022-07-29T06:39:47;11.60;;;9.67;;
846;SDS011;410;48.954;9.474;2022-07-29T06:42:11;9.93;;;9.10;;
846;SDS011;410;48.954;9.474;2022-07-29T06:44:15;11.07;;;10.10;;
846;SDS011;410;48.954;9.474;2022-07-29T06:46:19;9.20;;;8.30;;
846;SDS011;410;48.954;9.474;2022-07-29T06:48:23;10.17;;;9.17;;
846;SDS011;410;48.954;9.474;2022-07-29T06:50:26;10.67;;;9.57;;
846;SDS011;410;48.954;9.474;2022-07-29T06:52:29;10.87;;;8.47;;
846;SDS011;410;48.954;9.474;2022-07-29T06:54:33;9.67;;;8.63;;
846;SDS011;410;48.954;9.474;2022-07-29T06:56:36;10.10;;;9.20;;
846;SDS011;410;48.954;9.474;2022-07-29T06:58:44;10.80;;;9.40;;
846;SDS011;410;48.954;9.474;2022-07-29T07:00:47;9.10;;;8.30;;
846;SDS011;410;48.954;9.474;2022-07-29T07:02:51;9.20;;;8.40;;
846;SDS011;410;48.954;9.474;2022-07-29T07:04:54;9.70;;;8.80;;
846;SDS011;410;48.954;9.474;2022-07-29T07:06:57;10.10;;;9.10;;
846;SDS011;410;48.954;9.474;2022-07-29T07:09:01;9.70;;;8.80;;
846;SDS011;410;48.954;9.474;2022-07-29T07:11:04;9.37;;;8.57;;
846;SDS011;410;48.954;9.474;2022-07-29T07:13:08;8.93;;;8.10;;
846;SDS011;410;48.954;9.474;2022-07-29T07:15:13;9.33;;;8.50;;
846;SDS011;410;48.954;9.474;2022-07-29T07:17:16;9.40;;;8.40;;
846;SDS011;410;48.954;9.474;2022-07-29T07:19:19;9.47;;;8.60;;
846;SDS011;410;48.954;9.474;2022-07-29T07:21:23;8.73;;;8.03;;
846;SDS011;410;48.954;9.474;2022-07-29T07:23:30;9.20;;;8.40;;
846;SDS011;410;48.954;9.474;2022-07-29T07:25:33;7.97;;;7.27;;
846;SDS011;410;48.954;9.474;2022-07-29T07:27:39;7.67;;;6.97;;
846;SDS011;410;48.954;9.474;2022-07-29T07:29:42;7.77;;;7.07;;
846;SDS011;410;48.954;9.474;2022-07-29T07:31:46;6.77;;;6.17;;
846;SDS011;410;48.954;9.474;2022-07-29T07:33:50;7.30;;;6.50;;
846;SDS011;410;48.954;9.474;2022-07-29T07:35:54;7.40;;;6.80;;
846;SDS011;410;48.954;9.474;2022-07-29T07:37:57;6.73;;;6.13;;
846;SDS011;410;48.954;9.474;2022-07-29T07:40:01;6.63;;;6.03;;
846;SDS011;410;48.954;9.474;2022-07-29T07:42:04;6.50;;;5.90;;
846;SDS011;410;48.954;9.474;2022-07-29T07:44:08;4.90;;;4.50;;
846;SDS011;410;48.954;9.474;2022-07-29T07:46:16;5.40;;;4.90;;
846;SDS011;410;48.954;9.474;2022-07-29T07:48:21;5.50;;;4.87;;
846;SDS011;410;48.954;9.474;2022-07-29T07:50:24;5.50;;;5.00;;
846;SDS011;410;48.954;9.474;2022-07-29T07:52:28;5.13;;;4.63;;
846;SDS011;410;48.954;9.474;2022-07-29T07:54:31;5.17;;;4.70;;
846;SDS011;410;48.954;9.474;2022-07-29T07:56:34;6.53;;;5.03;;
846;SDS011;410;48.954;9.474;2022-07-29T07:58:37;5.80;;;5.30;;
846;SDS011;410;48.954;9.474;2022-07-29T08:00:40;5.60;;;5.10;;
846;SDS011;410;48.954;9.474;2022-07-29T08:02:43;7.37;;;5.17;;
846;SDS011;410;48.954;9.474;2022-07-29T08:04:49;5.30;;;4.80;;
846;SDS011;410;48.954;9.474;2022-07-29T08:06:52;5.43;;;4.97;;
846;SDS011;410;48.954;9.474;2022-07-29T08:08:56;9.70;;;8.70;;
846;SDS011;410;48.954;9.474;2022-07-29T08:11:19;6.27;;;5.60;;
846;SDS011;410;48.954;9.474;2022-07-29T08:13:24;5.63;;;5.13;;
846;SDS011;410;48.954;9.474;2022-07-29T08:15:29;5.30;;;4.90;;
846;SDS011;410;48.954;9.474;2022-07-29T08:17:33;6.37;;;5.77;;
846;SDS011;410;48.954;9.474;2022-07-29T08:19:36;6.07;;;5.57;;
846;SDS011;410;48.954;9.474;2022-07-29T08:21:41;5.53;;;5.03;;
846;SDS011;410;48.954;9.474;2022-07-29T08:23:45;6.00;;;5.50;;
846;SDS011;410;48.954;9.474;2022-07-29T08:26:02;6.53;;;4.90;;
846;SDS011;410;48.954;9.474;2022-07-29T08:28:05;6.20;;;5.60;;
846;SDS011;410;48.954;9.474;2022-07-29T08:30:08;6.63;;;5.30;;
846;SDS011;410;48.954;9.474;2022-07-29T08:32:12;5.90;;;5.40;;
846;SDS011;410;48.954;9.474;2022-07-29T08:34:35;5.93;;;5.37;;
846;SDS011;410;48.954;9.474;2022-07-29T08:36:38;6.70;;;6.00;;
846;SDS011;410;48.954;9.474;2022-07-29T08:38:43;5.80;;;5.20;;
846;SDS011;410;48.954;9.474;2022-07-29T08:40:47;6.10;;;5.50;;
846;SDS011;410;48.954;9.474;2022-07-29T08:42:50;6.40;;;5.67;;
846;SDS011;410;48.954;9.474;2022-07-29T08:44:53;5.70;;;5.20;;
846;SDS011;410;48.954;9.474;2022-07-29T08:46:56;6.40;;;5.50;;
846;SDS011;410;48.954;9.474;2022-07-29T08:49:00;6.60;;;5.90;;
846;SDS011;410;48.954;9.474;2022-07-29T08:51:06;6.97;;;5.77;;
846;SDS011;410;48.954;9.474;2022-07-29T08:53:11;7.00;;;6.40;;
846;SDS011;410;48.954;9.474;2022-07-29T08:55:16;6.33;;;5.73;;
846;SDS011;410;48.954;9.474;2022-07-29T08:57:22;6.90;;;6.27;;
846;SDS011;410;48.954;9.474;2022-07-29T08:59:28;5.83;;;5.33;;
846;SDS011;410;48.954;9.474;2022-07-29T09:01:33;6.10;;;5.60;;
846;SDS011;410;48.954;9.474;2022-07-29T09:03:45;6.37;;;5.87;;
846;SDS011;410;48.954;9.474;2022-07-29T09:05:49;6.30;;;5.80;;
846;SDS011;410;48.954;9.474;2022-07-29T09:07:52;7.73;;;6.93;;
846;SDS011;410;48.954;9.474;2022-07-29T09:09:56;7.10;;;6.10;;
846;SDS011;410;48.954;9.474;2022-07-29T09:12:00;7.10;;;6.40;;
846;SDS011;410;48.954;9.474;2022-07-29T09:14:05;6.57;;;6.00;;
846;SDS011;410;48.954;9.474;2022-07-29T09:16:08;7.03;;;6.43;;
846;SDS011;410;48.954;9.474;2022-07-29T09:18:12;6.73;;;6.17;;
846;SDS011;410;48.954;9.474;2022-07-29T09:20:31;6.97;;;6.37;;
846;SDS011;410;48.954;9.474;2022-07-29T09:22:48;9.20;;;6.07;;
846;SDS011;410;48.954;9.474;2022-07-29T09:24:54;7.27;;;6.63;;
846;SDS011;410;48.954;9.474;2022-07-29T09:26:57;7.10;;;6.40;;
846;SDS011;410;48.954;9.474;2022-07-29T09:29:01;7.23;;;6.50;;
846;SDS011;410;48.954;9.474;2022-07-29T09:31:11;7.10;;;6.40;;
846;SDS011;410;48.954;9.474;2022-07-29T09:33:14;7.80;;;7.00;;
846;SDS011;410;48.954;9.474;2022-07-29T09:35:18;7.20;;;6.17;;
846;SDS011;410;48.954;9.474;2022-07-29T09:37:26;7.40;;;6.70;;
846;SDS011;410;48.954;9.474;2022-07-29T09:39:30;7.20;;;6.60;;
846;SDS011;410;48.954;9.474;2022-07-29T09:41:44;7.73;;;6.80;;
846;SDS011;410;48.954;9.474;2022-07-29T09:43:53;6.93;;;6.37;;
846;SDS011;410;48.954;9.474;2022-07-29T09:46:06;10.20;;;7.60;;
846;SDS011;410;48.954;9.474;2022-07-29T09:48:13;6.93;;;6.33;;
846;SDS011;410;48.954;9.474;2022-07-29T09:50:17;9.30;;;6.90;;
846;SDS011;410;48.954;9.474;2022-07-29T09:52:25;7.77;;;6.33;;
846;SDS011;410;48.954;9.474;2022-07-29T09:54:29;7.23;;;6.63;;
846;SDS011;410;48.954;9.474;2022-07-29T09:56:38;8.10;;;6.50;;
846;SDS011;410;48.954;9.474;2022-07-29T09:58:42;7.13;;;6.40;;
846;SDS011;410;48.954;9.474;2022-07-29T10:00:46;7.80;;;7.10;;
846;SDS011;410;48.954;9.474;2022-07-29T10:02:52;7.63;;;6.93;;
846;SDS011;410;48.954;9.474;2022-07-29T10:05:04;7.13;;;6.43;;
846;SDS011;410;48.954;9.474;2022-07-29T10:07:09;9.43;;;7.00;;
846;SDS011;410;48.954;9.474;2022-07-29T10:09:12;7.50;;;6.77;;
846;SDS011;410;48.954;9.474;2022-07-29T10:11:15;7.67;;;6.57;;
846;SDS011;410;48.954;9.474;2022-07-29T10:13:20;8.53;;;6.90;;
846;SDS011;410;48.954;9.474;2022-07-29T10:15:26;8.07;;;7.27;;
846;SDS011;410;48.954;9.474;2022-07-29T10:17:30;11.80;;;6.83;;
846;SDS011;410;48.954;9.474;2022-07-29T10:19:37;7.23;;;6.63;;
846;SDS011;410;48.954;9.474;2022-07-29T10:21:41;7.50;;;6.83;;
846;SDS011;410;48.954;9.474;2022-07-29T10:23:46;8.37;;;7.00;;
846;SDS011;410;48.954;9.474;2022-07-29T10:25:49;8.37;;;7.43;;
846;SDS011;410;48.954;9.474;2022-07-29T10:27:53;7.90;;;7.30;;
846;SDS011;410;48.954;9.474;2022-07-29T10:29:57;7.73;;;7.03;;
846;SDS011;410;48.954;9.474;2022-07-29T10:32:07;8.13;;;7.43;;
846;SDS011;410;48.954;9.474;2022-07-29T10:34:30;8.83;;;7.93;;
846;SDS011;410;48.954;9.474;2022-07-29T10:36:43;7.53;;;6.90;;
846;SDS011;410;48.954;9.474;2022-07-29T10:38:53;8.20;;;7.40;;
846;SDS011;410;48.954;9.474;2022-07-29T10:41:01;8.17;;;7.20;;
846;SDS011;410;48.954;9.474;2022-07-29T10:43:33;11.77;;;7.30;;
846;SDS011;410;48.954;9.474;2022-07-29T10:45:42;7.97;;;7.20;;
846;SDS011;410;48.954;9.474;2022-07-29T10:47:46;7.63;;;7.03;;
846;SDS011;410;48.954;9.474;2022-07-29T10:49:56;8.10;;;7.40;;
846;SDS011;410;48.954;9.474;2022-07-29T10:52:04;8.30;;;7.50;;
846;SDS011;410;48.954;9.474;2022-07-29T10:54:08;8.13;;;7.30;;
846;SDS011;410;48.954;9.474;2022-07-29T10:56:22;9.17;;;8.30;;
846;SDS011;410;48.954;9.474;2022-07-29T10:58:27;8.50;;;7.70;;
846;SDS011;410;48.954;9.474;2022-07-29T11:00:31;8.60;;;7.80;;
846;SDS011;410;48.954;9.474;2022-07-29T11:02:44;8.67;;;7.97;;
846;SDS011;410;48.954;9.474;2022-07-29T11:05:00;7.73;;;7.13;;
846;SDS011;410;48.954;9.474;2022-07-29T11:07:08;8.70;;;7.83;;
846;SDS011;410;48.954;9.474;2022-07-29T11:09:15;8.23;;;7.43;;
846;SDS011;410;48.954;9.474;2022-07-29T11:11:30;9.30;;;8.40;;
846;SDS011;410;48.954;9.474;2022-07-29T11:13:45;10.03;;;9.07;;
846;SDS011;410;48.954;9.474;2022-07-29T11:16:09;8.53;;;7.73;;
846;SDS011;410;48.954;9.474;2022-07-29T11:18:16;8.10;;;7.40;;
846;SDS011;410;48.954;9.474;2022-07-29T11:20:30;8.63;;;7.73;;
846;SDS011;410;48.954;9.474;2022-07-29T11:22:38;8.30;;;7.60;;
846;SDS011;410;48.954;9.474;2022-07-29T11:24:50;9.07;;;8.27;;
846;SDS011;410;48.954;9.474;2022-07-29T11:27:17;9.37;;;8.47;;
846;SDS011;410;48.954;9.474;2022-07-29T11:29:23;10.00;;;8.60;;
846;SDS011;410;48.954;9.474;2022-07-29T11:31:35;8.87;;;7.97;;
846;SDS011;410;48.954;9.474;2022-07-29T11:33:39;9.10;;;8.20;;
846;SDS011;410;48.954;9.474;2022-07-29T11:36:09;10.50;;;8.27;;
846;SDS011;410;48.954;9.474;2022-07-29T11:38:30;9.77;;;8.10;;
846;SDS011;410;48.954;9.474;2022-07-29T11:40:33;9.27;;;8.37;;
846;SDS011;410;48.954;9.474;2022-07-29T11:42:44;9.80;;;7.50;;
846;SDS011;410;48.954;9.474;2022-07-29T11:44:54;8.83;;;8.03;;
846;SDS011;410;48.954;9.474;2022-07-29T11:46:58;9.73;;;8.10;;
846;SDS011;410;48.954;9.474;2022-07-29T11:49:02;8.80;;;7.97;;
846;SDS011;410;48.954;9.474;2022-07-29T11:51:10;9.10;;;8.30;;
846;SDS011;410;48.954;9.474;2022-07-29T11:53:14;8.30;;;7.60;;
846;SDS011;410;48.954;9.474;2022-07-29T11:55:20;8.97;;;8.07;;
846;SDS011;410;48.954;9.474;2022-07-29T11:57:33;10.20;;;9.27;;
846;SDS011;410;48.954;9.474;2022-07-29T11:59:39;8.47;;;7.77;;
846;SDS011;410;48.954;9.474;2022-07-29T12:01:51;8.20;;;7.50;;
846;SDS011;410;48.954;9.474;2022-07-29T12:04:15;9.80;;;7.70;;
846;SDS011;410;48.954;9.474;2022-07-29T12:06:20;8.20;;;7.40;;
846;SDS011;410;48.954;9.474;2022-07-29T12:08:23;8.60;;;7.73;;
846;SDS011;410;48.954;9.474;2022-07-29T12:10:31;9.10;;;7.33;;
846;SDS011;410;48.954;9.474;2022-07-29T12:12:34;8.23;;;7.40;;
846;SDS011;410;48.954;9.474;2022-07-29T12:14:38;8.13;;;7.43;;
846;SDS011;410;48.954;9.474;2022-07-29T12:16:47;8.90;;;8.10;;
846;SDS011;410;48.954;9.474;2022-07-29T12:18:56;13.30;;;8.17;;
846;SDS011;410;48.954;9.474;2022-07-29T12:21:01;9.57;;;8.57;;
846;SDS011;410;48.954;9.474;2022-07-29T12:23:06;11.63;;;9.57;;
846;SDS011;410;48.954;9.474;2022-07-29T12:25:11;9.97;;;9.03;;
846;SDS011;410;48.954;9.474;2022-07-29T12:27:36;8.97;;;8.07;;
846;SDS011;410;48.954;9.474;2022-07-29T12:29:41;9.60;;;8.60;;
846;SDS011;410;48.954;9.474;2022-07-29T12:31:51;11.73;;;9.30;;
846;SDS011;410;48.954;9.474;2022-07-29T12:33:58;11.83;;;8.57;;
846;SDS011;410;48.954;9.474;2022-07-29T12:36:02;9.53;;;8.60;;
846;SDS011;410;48.954;9.474;2022-07-29T12:38:18;9.57;;;8.30;;
846;SDS011;410;48.954;9.474;2022-07-29T12:40:21;11.70;;;10.60;;
846;SDS011;410;48.954;9.474;2022-07-29T12:42:25;10.03;;;9.00;;
846;SDS011;410;48.954;9.474;2022-07-29T12:44:44;9.40;;;8.60;;
846;SDS011;410;48.954;9.474;2022-07-29T12:47:00;9.73;;;8.83;;
846;SDS011;410;48.954;9.474;2022-07-29T12:49:04;9.13;;;8.33;;
846;SDS011;410;48.954;9.474;2022-07-29T12:51:08;8.93;;;8.10;;
846;SDS011;410;48.954;9.474;2022-07-29T12:53:13;9.60;;;8.60;;
846;SDS011;410;48.954;9.474;2022-07-29T12:57:45;9.50;;;8.53;;
846;SDS011;410;48.954;9.474;2022-07-29T13:00:01;7.83;;;7.17;;
846;SDS011;410;48.954;9.474;2022-07-29T13:02:19;7.97;;;7.23;;
846;SDS011;410;48.954;9.474;2022-07-29T13:04:24;8.60;;;7.37;;
846;SDS011;410;48.954;9.474;2022-07-29T13:06:37;7.97;;;7.27;;
846;SDS011;410;48.954;9.474;2022-07-29T13:08:52;7.20;;;6.00;;
846;SDS011;410;48.954;9.474;2022-07-29T13:11:01;6.70;;;6.00;;
846;SDS011;410;48.954;9.474;2022-07-29T13:13:04;4.83;;;4.43;;
846;SDS011;410;48.954;9.474;2022-07-29T13:15:14;4.80;;;4.00;;
846;SDS011;410;48.954;9.474;2022-07-29T13:17:18;3.80;;;3.50;;
846;SDS011;410;48.954;9.474;2022-07-29T13:19:32;4.50;;;4.00;;
846;SDS011;410;48.954;9.474;2022-07-29T13:21:37;5.53;;;4.33;;
846;SDS011;410;48.954;9.474;2022-07-29T13:23:41;5.17;;;3.53;;